sensor_id;sensor_type;location;lat;lon;timestamp;P1;durP1;ratioP1;P2;durP2;ratioP2
75167;SDS011;63748;48.088;11.476;2023-02-15T00:01:35;20.52;;;6.78;;
75167;SDS011;63748;48.088;11.476;2023-02-15T00:04:02;12.77;;;6.43;;
75167;SDS011;63748;48.088;11.476;2023-02-15T00:06:28;11.48;;;5.85;;
75167;SDS011;63748;48.088;11.476;2023-02-15T00:08:54;14.77;;;6.15;;
75167;SDS011;63748;48.088;11.476;2023-02-15T00:11:20;13.40;;;6.07;;
75167;SDS011;63748;48.088;11.476;2023-02-15T00:14:15;9.57;;;5.53;;
75167;SDS011;63748;48.088;11.476;2023-02-15T00:16:42;10.25;;;5.55;;
75167;SDS011;63748;48.088;11.476;2023-02-15T00:19:08;9.73;;;5.60;;
75167;SDS011;63748;48.088;11.476;2023-02-15T00:21:35;15.85;;;6.22;;
75167;SDS011;63748;48.088;11.476;2023-02-15T00:24:02;12.43;;;6.10;;
75167;SDS011;63748;48.088;11.476;2023-02-15T00:26:28;12.48;;;6.03;;
75167;SDS011;63748;48.088;11.476;2023-02-15T00:28:55;14.00;;;5.60;;
75167;SDS011;63748;48.088;11.476;2023-02-15T00:31:23;10.60;;;5.65;;
75167;SDS011;63748;48.088;11.476;2023-02-15T00:33:49;15.60;;;6.35;;
75167;SDS011;63748;48.088;11.476;2023-02-15T00:36:16;11.10;;;5.50;;
75167;SDS011;63748;48.088;11.476;2023-02-15T00:38:42;14.00;;;5.63;;
75167;SDS011;63748;48.088;11.476;2023-02-15T00:41:08;15.18;;;6.28;;
75167;SDS011;63748;48.088;11.476;2023-02-15T00:43:35;10.10;;;5.55;;
75167;SDS011;63748;48.088;11.476;2023-02-15T00:46:02;11.75;;;6.03;;
75167;SDS011;63748;48.088;11.476;2023-02-15T00:48:28;11.43;;;6.65;;
75167;SDS011;63748;48.088;11.476;2023-02-15T00:50:56;11.30;;;5.53;;
75167;SDS011;63748;48.088;11.476;2023-02-15T00:53:22;11.88;;;6.07;;
75167;SDS011;63748;48.088;11.476;2023-02-15T00:55:49;17.38;;;6.07;;
75167;SDS011;63748;48.088;11.476;2023-02-15T00:58:15;10.45;;;4.93;;
75167;SDS011;63748;48.088;11.476;2023-02-15T01:00:42;11.98;;;5.95;;
75167;SDS011;63748;48.088;11.476;2023-02-15T01:03:08;13.38;;;6.25;;
75167;SDS011;63748;48.088;11.476;2023-02-15T01:05:34;12.93;;;6.15;;
75167;SDS011;63748;48.088;11.476;2023-02-15T01:08:01;10.43;;;5.43;;
75167;SDS011;63748;48.088;11.476;2023-02-15T01:10:27;10.80;;;5.70;;
75167;SDS011;63748;48.088;11.476;2023-02-15T01:12:53;8.30;;;4.40;;
75167;SDS011;63748;48.088;11.476;2023-02-15T01:15:20;10.73;;;6.13;;
75167;SDS011;63748;48.088;11.476;2023-02-15T01:17:46;12.75;;;6.07;;
75167;SDS011;63748;48.088;11.476;2023-02-15T01:20:18;8.88;;;5.28;;
75167;SDS011;63748;48.088;11.476;2023-02-15T01:22:44;9.30;;;4.35;;
75167;SDS011;63748;48.088;11.476;2023-02-15T01:25:10;11.98;;;5.93;;
75167;SDS011;63748;48.088;11.476;2023-02-15T01:27:36;9.23;;;4.75;;
75167;SDS011;63748;48.088;11.476;2023-02-15T01:30:02;12.80;;;5.05;;
75167;SDS011;63748;48.088;11.476;2023-02-15T01:32:29;8.85;;;4.75;;
75167;SDS011;63748;48.088;11.476;2023-02-15T01:34:56;9.02;;;4.90;;
75167;SDS011;63748;48.088;11.476;2023-02-15T01:37:22;12.05;;;5.38;;
75167;SDS011;63748;48.088;11.476;2023-02-15T01:39:48;13.38;;;5.85;;
75167;SDS011;63748;48.088;11.476;2023-02-15T01:42:14;11.82;;;5.50;;
75167;SDS011;63748;48.088;11.476;2023-02-15T01:47:22;9.38;;;4.93;;
75167;SDS011;63748;48.088;11.476;2023-02-15T01:49:49;9.40;;;4.45;;
75167;SDS011;63748;48.088;11.476;2023-02-15T01:52:18;8.40;;;4.63;;
75167;SDS011;63748;48.088;11.476;2023-02-15T01:54:44;11.23;;;4.93;;
75167;SDS011;63748;48.088;11.476;2023-02-15T01:57:14;13.00;;;5.35;;
75167;SDS011;63748;48.088;11.476;2023-02-15T01:59:43;9.90;;;5.50;;
75167;SDS011;63748;48.088;11.476;2023-02-15T02:02:12;7.80;;;5.25;;
75167;SDS011;63748;48.088;11.476;2023-02-15T02:04:48;8.93;;;5.10;;
75167;SDS011;63748;48.088;11.476;2023-02-15T02:07:16;8.27;;;4.68;;
75167;SDS011;63748;48.088;11.476;2023-02-15T02:09:43;8.50;;;4.75;;
75167;SDS011;63748;48.088;11.476;2023-02-15T02:12:10;12.35;;;5.25;;
75167;SDS011;63748;48.088;11.476;2023-02-15T02:14:36;5.47;;;3.00;;
75167;SDS011;63748;48.088;11.476;2023-02-15T02:27:08;10.77;;;4.63;;
75167;SDS011;63748;48.088;11.476;2023-02-15T02:29:53;7.97;;;4.50;;
75167;SDS011;63748;48.088;11.476;2023-02-15T02:35:11;8.65;;;4.50;;
75167;SDS011;63748;48.088;11.476;2023-02-15T02:37:37;6.15;;;4.03;;
75167;SDS011;63748;48.088;11.476;2023-02-15T02:40:13;9.45;;;4.05;;
75167;SDS011;63748;48.088;11.476;2023-02-15T02:42:49;6.63;;;4.38;;
75167;SDS011;63748;48.088;11.476;2023-02-15T02:45:23;12.35;;;4.38;;
75167;SDS011;63748;48.088;11.476;2023-02-15T02:47:51;12.10;;;4.60;;
75167;SDS011;63748;48.088;11.476;2023-02-15T02:50:22;6.95;;;4.40;;
75167;SDS011;63748;48.088;11.476;2023-02-15T02:52:50;10.30;;;4.55;;
75167;SDS011;63748;48.088;11.476;2023-02-15T02:55:21;6.30;;;3.83;;
75167;SDS011;63748;48.088;11.476;2023-02-15T02:57:59;8.63;;;4.53;;
75167;SDS011;63748;48.088;11.476;2023-02-15T03:00:28;7.47;;;4.65;;
75167;SDS011;63748;48.088;11.476;2023-02-15T03:03:03;6.20;;;4.20;;
75167;SDS011;63748;48.088;11.476;2023-02-15T03:05:30;8.90;;;4.65;;
75167;SDS011;63748;48.088;11.476;2023-02-15T03:07:57;7.60;;;4.50;;
75167;SDS011;63748;48.088;11.476;2023-02-15T03:10:26;9.43;;;4.47;;
75167;SDS011;63748;48.088;11.476;2023-02-15T03:12:54;17.48;;;4.63;;
75167;SDS011;63748;48.088;11.476;2023-02-15T03:15:21;13.90;;;5.30;;
75167;SDS011;63748;48.088;11.476;2023-02-15T03:17:51;7.95;;;4.35;;
75167;SDS011;63748;48.088;11.476;2023-02-15T03:20:22;8.15;;;4.57;;
75167;SDS011;63748;48.088;11.476;2023-02-15T03:22:54;5.55;;;3.70;;
75167;SDS011;63748;48.088;11.476;2023-02-15T03:25:22;9.88;;;4.68;;
75167;SDS011;63748;48.088;11.476;2023-02-15T03:27:52;7.88;;;4.60;;
75167;SDS011;63748;48.088;11.476;2023-02-15T03:30:20;9.35;;;4.43;;
75167;SDS011;63748;48.088;11.476;2023-02-15T03:32:47;8.68;;;4.80;;
75167;SDS011;63748;48.088;11.476;2023-02-15T03:35:13;10.52;;;4.78;;
75167;SDS011;63748;48.088;11.476;2023-02-15T03:37:49;9.60;;;4.63;;
75167;SDS011;63748;48.088;11.476;2023-02-15T03:40:18;8.65;;;4.28;;
75167;SDS011;63748;48.088;11.476;2023-02-15T03:43:08;3.95;;;2.97;;
75167;SDS011;63748;48.088;11.476;2023-02-15T03:45:36;13.05;;;4.57;;
75167;SDS011;63748;48.088;11.476;2023-02-15T03:48:03;12.50;;;4.38;;
75167;SDS011;63748;48.088;11.476;2023-02-15T03:50:31;11.10;;;5.22;;
75167;SDS011;63748;48.088;11.476;2023-02-15T03:53:17;7.45;;;4.55;;
75167;SDS011;63748;48.088;11.476;2023-02-15T03:55:48;14.13;;;4.20;;
75167;SDS011;63748;48.088;11.476;2023-02-15T03:58:15;12.75;;;4.90;;
75167;SDS011;63748;48.088;11.476;2023-02-15T04:01:00;10.93;;;5.60;;
75167;SDS011;63748;48.088;11.476;2023-02-15T04:03:56;9.98;;;4.40;;
75167;SDS011;63748;48.088;11.476;2023-02-15T04:06:23;7.97;;;4.85;;
75167;SDS011;63748;48.088;11.476;2023-02-15T04:08:49;11.60;;;5.60;;
75167;SDS011;63748;48.088;11.476;2023-02-15T04:11:34;12.25;;;5.22;;
75167;SDS011;63748;48.088;11.476;2023-02-15T04:14:00;8.57;;;4.35;;
75167;SDS011;63748;48.088;11.476;2023-02-15T04:16:46;10.23;;;4.65;;
75167;SDS011;63748;48.088;11.476;2023-02-15T04:19:12;13.77;;;5.18;;
75167;SDS011;63748;48.088;11.476;2023-02-15T04:21:56;10.63;;;4.82;;
75167;SDS011;63748;48.088;11.476;2023-02-15T04:24:41;9.75;;;4.57;;
75167;SDS011;63748;48.088;11.476;2023-02-15T04:27:25;13.65;;;4.43;;
75167;SDS011;63748;48.088;11.476;2023-02-15T04:29:51;9.18;;;4.95;;
75167;SDS011;63748;48.088;11.476;2023-02-15T04:32:18;9.90;;;4.88;;
75167;SDS011;63748;48.088;11.476;2023-02-15T04:34:44;10.55;;;5.07;;
75167;SDS011;63748;48.088;11.476;2023-02-15T04:37:10;9.48;;;4.65;;
75167;SDS011;63748;48.088;11.476;2023-02-15T04:39:36;10.52;;;4.30;;
75167;SDS011;63748;48.088;11.476;2023-02-15T04:42:02;8.93;;;5.20;;
75167;SDS011;63748;48.088;11.476;2023-02-15T04:44:28;9.98;;;5.13;;
75167;SDS011;63748;48.088;11.476;2023-02-15T04:46:54;13.63;;;5.28;;
75167;SDS011;63748;48.088;11.476;2023-02-15T04:49:20;14.90;;;5.90;;
75167;SDS011;63748;48.088;11.476;2023-02-15T04:51:46;9.52;;;5.13;;
75167;SDS011;63748;48.088;11.476;2023-02-15T04:54:12;13.55;;;4.57;;
75167;SDS011;63748;48.088;11.476;2023-02-15T04:56:38;11.95;;;5.25;;
75167;SDS011;63748;48.088;11.476;2023-02-15T04:59:05;11.30;;;4.95;;
75167;SDS011;63748;48.088;11.476;2023-02-15T05:01:31;6.68;;;4.60;;
75167;SDS011;63748;48.088;11.476;2023-02-15T05:03:57;10.05;;;4.45;;
75167;SDS011;63748;48.088;11.476;2023-02-15T05:06:23;11.90;;;5.05;;
75167;SDS011;63748;48.088;11.476;2023-02-15T05:08:49;10.68;;;4.15;;
75167;SDS011;63748;48.088;11.476;2023-02-15T05:11:15;9.80;;;5.28;;
75167;SDS011;63748;48.088;11.476;2023-02-15T05:13:41;8.38;;;3.88;;
75167;SDS011;63748;48.088;11.476;2023-02-15T05:16:07;10.43;;;5.18;;
75167;SDS011;63748;48.088;11.476;2023-02-15T05:18:33;10.48;;;5.18;;
75167;SDS011;63748;48.088;11.476;2023-02-15T05:20:59;11.30;;;4.78;;
75167;SDS011;63748;48.088;11.476;2023-02-15T05:23:25;9.20;;;4.50;;
75167;SDS011;63748;48.088;11.476;2023-02-15T05:25:51;6.60;;;4.32;;
75167;SDS011;63748;48.088;11.476;2023-02-15T05:28:36;8.75;;;3.95;;
75167;SDS011;63748;48.088;11.476;2023-02-15T05:33:38;9.80;;;4.85;;
75167;SDS011;63748;48.088;11.476;2023-02-15T05:36:05;8.73;;;5.13;;
75167;SDS011;63748;48.088;11.476;2023-02-15T05:38:31;10.05;;;4.88;;
75167;SDS011;63748;48.088;11.476;2023-02-15T05:40:58;22.08;;;4.63;;
75167;SDS011;63748;48.088;11.476;2023-02-15T05:43:24;10.52;;;4.32;;
75167;SDS011;63748;48.088;11.476;2023-02-15T05:45:51;10.98;;;4.78;;
75167;SDS011;63748;48.088;11.476;2023-02-15T05:48:18;7.63;;;4.65;;
75167;SDS011;63748;48.088;11.476;2023-02-15T05:50:44;10.88;;;4.97;;
75167;SDS011;63748;48.088;11.476;2023-02-15T05:53:10;14.65;;;5.47;;
75167;SDS011;63748;48.088;11.476;2023-02-15T05:55:37;9.75;;;4.82;;
75167;SDS011;63748;48.088;11.476;2023-02-15T05:58:03;10.95;;;5.13;;
75167;SDS011;63748;48.088;11.476;2023-02-15T06:00:30;10.50;;;5.10;;
75167;SDS011;63748;48.088;11.476;2023-02-15T06:02:56;13.30;;;5.20;;
75167;SDS011;63748;48.088;11.476;2023-02-15T06:05:22;9.32;;;5.30;;
75167;SDS011;63748;48.088;11.476;2023-02-15T06:07:48;13.18;;;5.15;;
75167;SDS011;63748;48.088;11.476;2023-02-15T06:10:14;10.93;;;5.10;;
75167;SDS011;63748;48.088;11.476;2023-02-15T06:12:40;11.15;;;5.28;;
75167;SDS011;63748;48.088;11.476;2023-02-15T06:15:06;9.30;;;4.72;;
75167;SDS011;63748;48.088;11.476;2023-02-15T06:17:33;10.57;;;4.45;;
75167;SDS011;63748;48.088;11.476;2023-02-15T06:19:59;7.55;;;3.70;;
75167;SDS011;63748;48.088;11.476;2023-02-15T06:22:25;7.03;;;4.30;;
75167;SDS011;63748;48.088;11.476;2023-02-15T06:24:51;6.82;;;4.32;;
75167;SDS011;63748;48.088;11.476;2023-02-15T06:27:17;8.65;;;4.10;;
75167;SDS011;63748;48.088;11.476;2023-02-15T06:29:43;8.88;;;4.13;;
75167;SDS011;63748;48.088;11.476;2023-02-15T06:32:09;7.65;;;4.13;;
75167;SDS011;63748;48.088;11.476;2023-02-15T06:34:35;7.90;;;4.63;;
75167;SDS011;63748;48.088;11.476;2023-02-15T06:37:01;8.68;;;4.60;;
75167;SDS011;63748;48.088;11.476;2023-02-15T06:39:27;9.73;;;4.47;;
75167;SDS011;63748;48.088;11.476;2023-02-15T06:41:53;10.25;;;4.57;;
75167;SDS011;63748;48.088;11.476;2023-02-15T06:44:19;8.45;;;4.25;;
75167;SDS011;63748;48.088;11.476;2023-02-15T06:46:45;6.13;;;4.10;;
75167;SDS011;63748;48.088;11.476;2023-02-15T06:49:11;7.15;;;3.60;;
75167;SDS011;63748;48.088;11.476;2023-02-15T06:51:38;7.68;;;4.55;;
75167;SDS011;63748;48.088;11.476;2023-02-15T06:54:04;11.45;;;4.45;;
75167;SDS011;63748;48.088;11.476;2023-02-15T06:56:30;8.60;;;5.13;;
75167;SDS011;63748;48.088;11.476;2023-02-15T06:58:56;7.97;;;4.80;;
75167;SDS011;63748;48.088;11.476;2023-02-15T07:01:22;7.07;;;3.95;;
75167;SDS011;63748;48.088;11.476;2023-02-15T07:03:48;10.48;;;5.65;;
75167;SDS011;63748;48.088;11.476;2023-02-15T07:06:14;6.40;;;3.63;;
75167;SDS011;63748;48.088;11.476;2023-02-15T07:08:40;7.32;;;4.50;;
75167;SDS011;63748;48.088;11.476;2023-02-15T07:11:06;8.85;;;5.30;;
75167;SDS011;63748;48.088;11.476;2023-02-15T07:13:51;6.68;;;4.47;;
75167;SDS011;63748;48.088;11.476;2023-02-15T07:16:18;8.05;;;4.57;;
75167;SDS011;63748;48.088;11.476;2023-02-15T07:18:44;7.50;;;4.70;;
75167;SDS011;63748;48.088;11.476;2023-02-15T07:21:10;9.02;;;5.13;;
75167;SDS011;63748;48.088;11.476;2023-02-15T07:23:36;9.13;;;4.93;;
75167;SDS011;63748;48.088;11.476;2023-02-15T07:26:03;8.57;;;4.55;;
75167;SDS011;63748;48.088;11.476;2023-02-15T07:28:29;8.00;;;4.15;;
75167;SDS011;63748;48.088;11.476;2023-02-15T07:30:56;10.75;;;5.15;;
75167;SDS011;63748;48.088;11.476;2023-02-15T07:33:22;8.40;;;4.90;;
75167;SDS011;63748;48.088;11.476;2023-02-15T07:35:49;10.15;;;4.72;;
75167;SDS011;63748;48.088;11.476;2023-02-15T07:38:16;10.07;;;4.85;;
75167;SDS011;63748;48.088;11.476;2023-02-15T07:40:42;9.05;;;4.97;;
75167;SDS011;63748;48.088;11.476;2023-02-15T07:43:08;11.43;;;5.50;;
75167;SDS011;63748;48.088;11.476;2023-02-15T07:45:35;7.03;;;3.47;;
75167;SDS011;63748;48.088;11.476;2023-02-15T07:48:01;13.30;;;6.40;;
75167;SDS011;63748;48.088;11.476;2023-02-15T07:50:27;8.93;;;4.63;;
75167;SDS011;63748;48.088;11.476;2023-02-15T07:52:53;9.77;;;4.72;;
75167;SDS011;63748;48.088;11.476;2023-02-15T07:55:19;8.10;;;4.30;;
75167;SDS011;63748;48.088;11.476;2023-02-15T07:57:46;8.60;;;4.80;;
75167;SDS011;63748;48.088;11.476;2023-02-15T08:00:13;9.07;;;4.68;;
75167;SDS011;63748;48.088;11.476;2023-02-15T08:02:40;10.77;;;4.90;;
75167;SDS011;63748;48.088;11.476;2023-02-15T08:05:06;11.02;;;5.75;;
75167;SDS011;63748;48.088;11.476;2023-02-15T08:07:33;8.80;;;5.22;;
75167;SDS011;63748;48.088;11.476;2023-02-15T08:09:59;10.18;;;5.40;;
75167;SDS011;63748;48.088;11.476;2023-02-15T08:12:28;8.02;;;4.70;;
75167;SDS011;63748;48.088;11.476;2023-02-15T08:14:54;9.10;;;5.22;;
75167;SDS011;63748;48.088;11.476;2023-02-15T08:17:20;8.82;;;4.53;;
75167;SDS011;63748;48.088;11.476;2023-02-15T08:19:46;6.88;;;4.05;;
75167;SDS011;63748;48.088;11.476;2023-02-15T08:22:13;10.38;;;5.65;;
75167;SDS011;63748;48.088;11.476;2023-02-15T08:24:39;9.88;;;5.88;;
75167;SDS011;63748;48.088;11.476;2023-02-15T08:27:07;12.02;;;5.75;;
75167;SDS011;63748;48.088;11.476;2023-02-15T08:29:34;13.10;;;6.32;;
75167;SDS011;63748;48.088;11.476;2023-02-15T08:32:01;13.25;;;6.47;;
75167;SDS011;63748;48.088;11.476;2023-02-15T08:34:28;11.35;;;5.60;;
75167;SDS011;63748;48.088;11.476;2023-02-15T08:36:55;12.93;;;6.32;;
75167;SDS011;63748;48.088;11.476;2023-02-15T08:39:21;10.60;;;6.10;;
75167;SDS011;63748;48.088;11.476;2023-02-15T08:41:47;13.32;;;7.00;;
75167;SDS011;63748;48.088;11.476;2023-02-15T08:44:14;11.30;;;6.30;;
75167;SDS011;63748;48.088;11.476;2023-02-15T08:46:42;10.18;;;5.97;;
75167;SDS011;63748;48.088;11.476;2023-02-15T08:49:09;12.70;;;6.75;;
75167;SDS011;63748;48.088;11.476;2023-02-15T08:51:36;12.30;;;6.68;;
75167;SDS011;63748;48.088;11.476;2023-02-15T08:54:03;11.63;;;5.68;;
75167;SDS011;63748;48.088;11.476;2023-02-15T08:56:32;10.55;;;5.97;;
75167;SDS011;63748;48.088;11.476;2023-02-15T08:58:58;12.40;;;6.35;;
75167;SDS011;63748;48.088;11.476;2023-02-15T09:01:26;9.30;;;5.75;;
75167;SDS011;63748;48.088;11.476;2023-02-15T09:03:55;9.57;;;5.50;;
75167;SDS011;63748;48.088;11.476;2023-02-15T09:06:21;13.10;;;6.50;;
75167;SDS011;63748;48.088;11.476;2023-02-15T09:08:48;12.70;;;6.35;;
75167;SDS011;63748;48.088;11.476;2023-02-15T09:13:54;11.40;;;6.82;;
75167;SDS011;63748;48.088;11.476;2023-02-15T09:16:21;10.10;;;7.15;;
75167;SDS011;63748;48.088;11.476;2023-02-15T09:18:48;11.30;;;7.60;;
75167;SDS011;63748;48.088;11.476;2023-02-15T09:21:15;13.95;;;8.00;;
75167;SDS011;63748;48.088;11.476;2023-02-15T09:23:42;14.77;;;7.13;;
75167;SDS011;63748;48.088;11.476;2023-02-15T09:26:13;11.00;;;5.97;;
75167;SDS011;63748;48.088;11.476;2023-02-15T09:28:39;12.63;;;7.35;;
75167;SDS011;63748;48.088;11.476;2023-02-15T09:33:38;11.52;;;7.13;;
75167;SDS011;63748;48.088;11.476;2023-02-15T09:36:05;11.05;;;6.88;;
75167;SDS011;63748;48.088;11.476;2023-02-15T09:38:32;12.80;;;7.25;;
75167;SDS011;63748;48.088;11.476;2023-02-15T09:41:05;10.77;;;6.75;;
75167;SDS011;63748;48.088;11.476;2023-02-15T09:43:48;12.82;;;7.00;;
75167;SDS011;63748;48.088;11.476;2023-02-15T09:46:24;13.80;;;7.45;;
75167;SDS011;63748;48.088;11.476;2023-02-15T09:49:00;12.43;;;7.18;;
75167;SDS011;63748;48.088;11.476;2023-02-15T09:51:34;13.38;;;7.57;;
75167;SDS011;63748;48.088;11.476;2023-02-15T09:56:33;8.30;;;5.88;;
75167;SDS011;63748;48.088;11.476;2023-02-15T10:14:43;15.10;;;7.47;;
75167;SDS011;63748;48.088;11.476;2023-02-15T10:20:00;11.35;;;7.35;;
75167;SDS011;63748;48.088;11.476;2023-02-15T10:26:01;12.15;;;6.70;;
75167;SDS011;63748;48.088;11.476;2023-02-15T10:28:17;10.77;;;6.82;;
75167;SDS011;63748;48.088;11.476;2023-02-15T10:30:48;12.65;;;6.82;;
75167;SDS011;63748;48.088;11.476;2023-02-15T10:41:10;12.38;;;7.38;;
75167;SDS011;63748;48.088;11.476;2023-02-15T10:49:09;12.95;;;6.88;;
75167;SDS011;63748;48.088;11.476;2023-02-15T10:59:21;10.43;;;6.78;;
75167;SDS011;63748;48.088;11.476;2023-02-15T11:06:53;11.27;;;6.68;;
75167;SDS011;63748;48.088;11.476;2023-02-15T11:09:21;11.05;;;6.95;;
75167;SDS011;63748;48.088;11.476;2023-02-15T11:11:49;12.18;;;7.13;;
75167;SDS011;63748;48.088;11.476;2023-02-15T11:14:35;13.23;;;7.45;;
75167;SDS011;63748;48.088;11.476;2023-02-15T11:17:05;11.05;;;6.80;;
75167;SDS011;63748;48.088;11.476;2023-02-15T11:22:25;11.02;;;7.03;;
75167;SDS011;63748;48.088;11.476;2023-02-15T11:24:51;11.35;;;7.78;;
75167;SDS011;63748;48.088;11.476;2023-02-15T11:27:20;12.10;;;7.60;;
75167;SDS011;63748;48.088;11.476;2023-02-15T11:32:41;12.30;;;7.38;;
75167;SDS011;63748;48.088;11.476;2023-02-15T11:40:21;10.55;;;6.85;;
75167;SDS011;63748;48.088;11.476;2023-02-15T11:42:49;13.02;;;8.27;;
75167;SDS011;63748;48.088;11.476;2023-02-15T11:45:30;13.05;;;6.82;;
75167;SDS011;63748;48.088;11.476;2023-02-15T11:47:57;12.27;;;6.30;;
75167;SDS011;63748;48.088;11.476;2023-02-15T11:50:24;11.07;;;7.10;;
75167;SDS011;63748;48.088;11.476;2023-02-15T11:52:56;10.57;;;6.93;;
75167;SDS011;63748;48.088;11.476;2023-02-15T11:55:23;11.18;;;7.32;;
75167;SDS011;63748;48.088;11.476;2023-02-15T11:57:53;12.75;;;8.00;;
75167;SDS011;63748;48.088;11.476;2023-02-15T12:00:42;12.25;;;7.75;;
75167;SDS011;63748;48.088;11.476;2023-02-15T12:03:11;14.52;;;7.95;;
75167;SDS011;63748;48.088;11.476;2023-02-15T12:05:40;15.48;;;8.00;;
75167;SDS011;63748;48.088;11.476;2023-02-15T12:08:15;11.82;;;7.72;;
75167;SDS011;63748;48.088;11.476;2023-02-15T12:10:53;13.10;;;8.57;;
75167;SDS011;63748;48.088;11.476;2023-02-15T12:13:23;12.30;;;8.20;;
75167;SDS011;63748;48.088;11.476;2023-02-15T12:15:53;10.30;;;7.28;;
75167;SDS011;63748;48.088;11.476;2023-02-15T12:23:33;12.45;;;6.85;;
75167;SDS011;63748;48.088;11.476;2023-02-15T12:26:00;11.98;;;7.68;;
75167;SDS011;63748;48.088;11.476;2023-02-15T12:28:34;14.73;;;8.07;;
75167;SDS011;63748;48.088;11.476;2023-02-15T12:31:01;12.07;;;7.75;;
75167;SDS011;63748;48.088;11.476;2023-02-15T12:33:30;12.38;;;7.72;;
75167;SDS011;63748;48.088;11.476;2023-02-15T12:35:57;11.40;;;6.68;;
75167;SDS011;63748;48.088;11.476;2023-02-15T12:38:25;9.50;;;6.97;;
75167;SDS011;63748;48.088;11.476;2023-02-15T12:41:00;14.70;;;7.90;;
75167;SDS011;63748;48.088;11.476;2023-02-15T12:43:29;14.07;;;8.75;;
75167;SDS011;63748;48.088;11.476;2023-02-15T12:48:41;16.55;;;7.82;;
75167;SDS011;63748;48.088;11.476;2023-02-15T12:51:08;16.00;;;7.93;;
75167;SDS011;63748;48.088;11.476;2023-02-15T12:53:35;14.15;;;8.82;;
75167;SDS011;63748;48.088;11.476;2023-02-15T12:56:02;11.73;;;7.32;;
75167;SDS011;63748;48.088;11.476;2023-02-15T13:03:59;15.18;;;8.65;;
75167;SDS011;63748;48.088;11.476;2023-02-15T13:06:26;15.90;;;8.00;;
75167;SDS011;63748;48.088;11.476;2023-02-15T13:08:57;14.73;;;8.50;;
75167;SDS011;63748;48.088;11.476;2023-02-15T13:11:30;15.50;;;9.40;;
75167;SDS011;63748;48.088;11.476;2023-02-15T13:14:00;13.00;;;7.30;;
75167;SDS011;63748;48.088;11.476;2023-02-15T13:18:53;13.20;;;8.65;;
75167;SDS011;63748;48.088;11.476;2023-02-15T13:21:21;12.05;;;7.03;;
75167;SDS011;63748;48.088;11.476;2023-02-15T13:23:50;15.50;;;8.30;;
75167;SDS011;63748;48.088;11.476;2023-02-15T13:26:18;13.18;;;7.78;;
75167;SDS011;63748;48.088;11.476;2023-02-15T13:28:49;12.10;;;8.43;;
75167;SDS011;63748;48.088;11.476;2023-02-15T13:31:20;15.95;;;8.50;;
75167;SDS011;63748;48.088;11.476;2023-02-15T13:33:54;13.95;;;9.35;;
75167;SDS011;63748;48.088;11.476;2023-02-15T13:41:14;16.27;;;10.75;;
75167;SDS011;63748;48.088;11.476;2023-02-15T14:03:42;20.27;;;12.07;;
75167;SDS011;63748;48.088;11.476;2023-02-15T14:14:27;17.75;;;11.40;;
75167;SDS011;63748;48.088;11.476;2023-02-15T14:24:29;18.92;;;12.32;;
75167;SDS011;63748;48.088;11.476;2023-02-15T14:29:32;22.00;;;11.07;;
75167;SDS011;63748;48.088;11.476;2023-02-15T14:32:01;17.40;;;10.93;;
75167;SDS011;63748;48.088;11.476;2023-02-15T14:34:30;17.38;;;10.75;;
75167;SDS011;63748;48.088;11.476;2023-02-15T14:36:59;12.30;;;9.32;;
75167;SDS011;63748;48.088;11.476;2023-02-15T14:39:31;16.10;;;9.52;;
75167;SDS011;63748;48.088;11.476;2023-02-15T14:42:21;13.32;;;9.32;;
75167;SDS011;63748;48.088;11.476;2023-02-15T14:44:52;19.17;;;9.85;;
75167;SDS011;63748;48.088;11.476;2023-02-15T14:47:27;15.90;;;9.55;;
75167;SDS011;63748;48.088;11.476;2023-02-15T14:49:56;16.50;;;8.85;;
75167;SDS011;63748;48.088;11.476;2023-02-15T14:52:22;13.55;;;9.10;;
75167;SDS011;63748;48.088;11.476;2023-02-15T14:59:50;14.48;;;8.65;;
75167;SDS011;63748;48.088;11.476;2023-02-15T15:05:02;19.58;;;9.93;;
75167;SDS011;63748;48.088;11.476;2023-02-15T15:07:41;14.73;;;9.82;;
75167;SDS011;63748;48.088;11.476;2023-02-15T15:12:41;15.13;;;9.52;;
75167;SDS011;63748;48.088;11.476;2023-02-15T15:15:11;14.57;;;9.52;;
75167;SDS011;63748;48.088;11.476;2023-02-15T15:22:48;16.30;;;10.30;;
75167;SDS011;63748;48.088;11.476;2023-02-15T15:28:56;18.63;;;10.77;;
75167;SDS011;63748;48.088;11.476;2023-02-15T15:30:56;14.32;;;9.02;;
75167;SDS011;63748;48.088;11.476;2023-02-15T15:33:28;16.70;;;9.95;;
75167;SDS011;63748;48.088;11.476;2023-02-15T15:43:30;14.98;;;9.35;;
75167;SDS011;63748;48.088;11.476;2023-02-15T15:48:43;17.13;;;9.73;;
75167;SDS011;63748;48.088;11.476;2023-02-15T15:51:14;20.05;;;10.73;;
75167;SDS011;63748;48.088;11.476;2023-02-15T15:56:13;15.90;;;10.45;;
75167;SDS011;63748;48.088;11.476;2023-02-15T15:58:44;15.77;;;9.68;;
75167;SDS011;63748;48.088;11.476;2023-02-15T16:01:12;17.45;;;9.90;;
75167;SDS011;63748;48.088;11.476;2023-02-15T16:03:48;17.17;;;10.02;;
75167;SDS011;63748;48.088;11.476;2023-02-15T16:06:25;15.93;;;8.80;;
75167;SDS011;63748;48.088;11.476;2023-02-15T16:08:51;16.55;;;9.32;;
75167;SDS011;63748;48.088;11.476;2023-02-15T16:11:19;13.40;;;8.95;;
75167;SDS011;63748;48.088;11.476;2023-02-15T16:13:47;18.00;;;9.73;;
75167;SDS011;63748;48.088;11.476;2023-02-15T16:16:13;13.90;;;8.68;;
75167;SDS011;63748;48.088;11.476;2023-02-15T16:18:46;14.50;;;8.68;;
75167;SDS011;63748;48.088;11.476;2023-02-15T16:21:17;12.45;;;8.32;;
75167;SDS011;63748;48.088;11.476;2023-02-15T16:26:35;16.70;;;10.75;;
75167;SDS011;63748;48.088;11.476;2023-02-15T16:29:18;12.82;;;8.63;;
75167;SDS011;63748;48.088;11.476;2023-02-15T16:32:01;13.60;;;9.00;;
75167;SDS011;63748;48.088;11.476;2023-02-15T16:34:28;20.95;;;9.27;;
75167;SDS011;63748;48.088;11.476;2023-02-15T16:37:16;18.48;;;10.55;;
75167;SDS011;63748;48.088;11.476;2023-02-15T16:39:43;19.33;;;8.88;;
75167;SDS011;63748;48.088;11.476;2023-02-15T16:42:10;15.25;;;9.68;;
75167;SDS011;63748;48.088;11.476;2023-02-15T16:44:37;16.80;;;10.20;;
75167;SDS011;63748;48.088;11.476;2023-02-15T16:47:03;19.23;;;9.85;;
75167;SDS011;63748;48.088;11.476;2023-02-15T16:49:29;16.10;;;9.30;;
75167;SDS011;63748;48.088;11.476;2023-02-15T16:52:04;13.75;;;8.88;;
75167;SDS011;63748;48.088;11.476;2023-02-15T16:54:32;18.13;;;9.30;;
75167;SDS011;63748;48.088;11.476;2023-02-15T16:56:59;16.80;;;9.80;;
75167;SDS011;63748;48.088;11.476;2023-02-15T17:01:57;15.18;;;9.02;;
75167;SDS011;63748;48.088;11.476;2023-02-15T17:04:26;16.73;;;8.93;;
75167;SDS011;63748;48.088;11.476;2023-02-15T17:09:24;22.30;;;9.60;;
75167;SDS011;63748;48.088;11.476;2023-02-15T17:11:51;17.30;;;9.40;;
75167;SDS011;63748;48.088;11.476;2023-02-15T17:14:21;20.60;;;9.77;;
75167;SDS011;63748;48.088;11.476;2023-02-15T17:21:46;18.52;;;8.70;;
75167;SDS011;63748;48.088;11.476;2023-02-15T17:24:15;19.42;;;9.48;;
75167;SDS011;63748;48.088;11.476;2023-02-15T17:26:42;19.20;;;8.68;;
75167;SDS011;63748;48.088;11.476;2023-02-15T17:31:47;21.02;;;10.52;;
75167;SDS011;63748;48.088;11.476;2023-02-15T17:39:57;20.48;;;9.52;;
75167;SDS011;63748;48.088;11.476;2023-02-15T17:42:24;16.77;;;8.85;;
75167;SDS011;63748;48.088;11.476;2023-02-15T17:44:50;18.77;;;9.85;;
75167;SDS011;63748;48.088;11.476;2023-02-15T17:47:17;14.90;;;8.85;;
75167;SDS011;63748;48.088;11.476;2023-02-15T17:49:43;19.67;;;11.25;;
75167;SDS011;63748;48.088;11.476;2023-02-15T17:52:13;25.73;;;11.60;;